sensor_id;sensor_type;location;lat;lon;timestamp;temperature;humidity
11142;DHT22;5625;50.122;19.864;2022-10-16T00:01:06;14.20;99.90
11142;DHT22;5625;50.122;19.864;2022-10-16T00:03:34;14.30;99.90
11142;DHT22;5625;50.122;19.864;2022-10-16T00:06:03;14.30;99.90
11142;DHT22;5625;50.122;19.864;2022-10-16T00:08:32;14.20;99.90
11142;DHT22;5625;50.122;19.864;2022-10-16T00:11:02;14.20;99.90
11142;DHT22;5625;50.122;19.864;2022-10-16T00:13:32;14.20;99.90
11142;DHT22;5625;50.122;19.864;2022-10-16T00:16:01;14.30;99.90
11142;DHT22;5625;50.122;19.864;2022-10-16T00:18:30;14.20;99.90
11142;DHT22;5625;50.122;19.864;2022-10-16T00:21:02;14.20;99.90
11142;DHT22;5625;50.122;19.864;2022-10-16T00:23:31;14.20;99.90
11142;DHT22;5625;50.122;19.864;2022-10-16T00:26:00;14.30;99.90
11142;DHT22;5625;50.122;19.864;2022-10-16T00:28:31;14.30;99.90
11142;DHT22;5625;50.122;19.864;2022-10-16T00:31:03;14.30;99.90
11142;DHT22;5625;50.122;19.864;2022-10-16T00:33:31;14.30;99.90
11142;DHT22;5625;50.122;19.864;2022-10-16T00:36:00;14.30;99.90
11142;DHT22;5625;50.122;19.864;2022-10-16T00:38:28;14.30;99.90
11142;DHT22;5625;50.122;19.864;2022-10-16T00:40:56;14.30;99.90
11142;DHT22;5625;50.122;19.864;2022-10-16T00:43:37;14.30;99.90
11142;DHT22;5625;50.122;19.864;2022-10-16T00:46:13;14.30;99.90
11142;DHT22;5625;50.122;19.864;2022-10-16T00:48:46;14.30;99.90
11142;DHT22;5625;50.122;19.864;2022-10-16T00:51:16;14.30;99.90
11142;DHT22;5625;50.122;19.864;2022-10-16T00:53:46;14.30;99.90
11142;DHT22;5625;50.122;19.864;2022-10-16T00:56:14;14.30;99.90
11142;DHT22;5625;50.122;19.864;2022-10-16T00:58:44;14.30;99.90
11142;DHT22;5625;50.122;19.864;2022-10-16T01:01:12;14.30;99.90
11142;DHT22;5625;50.122;19.864;2022-10-16T01:03:40;14.30;99.90
11142;DHT22;5625;50.122;19.864;2022-10-16T01:06:23;14.30;99.90
11142;DHT22;5625;50.122;19.864;2022-10-16T01:09:10;14.30;99.90
11142;DHT22;5625;50.122;19.864;2022-10-16T01:11:45;14.30;99.90
11142;DHT22;5625;50.122;19.864;2022-10-16T01:14:28;14.30;99.90
11142;DHT22;5625;50.122;19.864;2022-10-16T01:17:04;14.30;99.90
11142;DHT22;5625;50.122;19.864;2022-10-16T01:19:44;14.30;99.90
11142;DHT22;5625;50.122;19.864;2022-10-16T01:22:17;14.30;99.90
11142;DHT22;5625;50.122;19.864;2022-10-16T01:24:48;14.30;99.90
11142;DHT22;5625;50.122;19.864;2022-10-16T01:27:21;14.30;99.90
11142;DHT22;5625;50.122;19.864;2022-10-16T01:29:53;14.30;99.90
11142;DHT22;5625;50.122;19.864;2022-10-16T01:32:31;14.30;99.90
11142;DHT22;5625;50.122;19.864;2022-10-16T01:35:04;14.30;99.90
11142;DHT22;5625;50.122;19.864;2022-10-16T01:37:37;14.30;99.90
11142;DHT22;5625;50.122;19.864;2022-10-16T01:40:10;14.30;99.90
11142;DHT22;5625;50.122;19.864;2022-10-16T01:42:44;14.30;99.90
11142;DHT22;5625;50.122;19.864;2022-10-16T01:45:15;14.30;99.90
11142;DHT22;5625;50.122;19.864;2022-10-16T01:47:47;14.20;99.90
11142;DHT22;5625;50.122;19.864;2022-10-16T01:50:18;14.30;99.90
11142;DHT22;5625;50.122;19.864;2022-10-16T01:52:49;14.20;99.90
11142;DHT22;5625;50.122;19.864;2022-10-16T01:55:24;14.30;99.90
11142;DHT22;5625;50.122;19.864;2022-10-16T01:57:57;14.30;99.90
11142;DHT22;5625;50.122;19.864;2022-10-16T02:00:28;14.30;99.90
11142;DHT22;5625;50.122;19.864;2022-10-16T02:02:58;14.30;99.90
11142;DHT22;5625;50.122;19.864;2022-10-16T02:05:30;14.30;99.90
11142;DHT22;5625;50.122;19.864;2022-10-16T02:07:59;14.30;99.90
11142;DHT22;5625;50.122;19.864;2022-10-16T02:10:31;14.30;99.90
11142;DHT22;5625;50.122;19.864;2022-10-16T02:13:06;14.30;99.90
11142;DHT22;5625;50.122;19.864;2022-10-16T02:15:36;14.30;99.90
11142;DHT22;5625;50.122;19.864;2022-10-16T02:18:05;14.30;99.90
11142;DHT22;5625;50.122;19.864;2022-10-16T02:20:37;14.30;99.90
11142;DHT22;5625;50.122;19.864;2022-10-16T02:23:08;14.20;99.90
11142;DHT22;5625;50.122;19.864;2022-10-16T02:25:41;14.30;99.90
11142;DHT22;5625;50.122;19.864;2022-10-16T02:28:17;14.20;99.90
11142;DHT22;5625;50.122;19.864;2022-10-16T02:30:50;14.20;99.90
11142;DHT22;5625;50.122;19.864;2022-10-16T02:33:20;14.20;99.90
11142;DHT22;5625;50.122;19.864;2022-10-16T02:35:49;14.10;99.90
11142;DHT22;5625;50.122;19.864;2022-10-16T02:38:19;14.10;99.90
11142;DHT22;5625;50.122;19.864;2022-10-16T02:40:48;14.00;99.90
11142;DHT22;5625;50.122;19.864;2022-10-16T02:43:17;14.00;99.90
11142;DHT22;5625;50.122;19.864;2022-10-16T02:45:46;14.00;99.90
11142;DHT22;5625;50.122;19.864;2022-10-16T02:48:14;14.00;99.90
11142;DHT22;5625;50.122;19.864;2022-10-16T02:50:42;13.90;99.90
11142;DHT22;5625;50.122;19.864;2022-10-16T02:53:10;13.90;99.90
11142;DHT22;5625;50.122;19.864;2022-10-16T02:55:38;13.90;99.90
11142;DHT22;5625;50.122;19.864;2022-10-16T02:58:06;13.90;99.90
11142;DHT22;5625;50.122;19.864;2022-10-16T03:00:35;13.90;99.90
11142;DHT22;5625;50.122;19.864;2022-10-16T03:03:03;13.90;99.90
11142;DHT22;5625;50.122;19.864;2022-10-16T03:05:31;13.80;99.90
11142;DHT22;5625;50.122;19.864;2022-10-16T03:07:59;13.80;99.90
11142;DHT22;5625;50.122;19.864;2022-10-16T03:10:27;13.80;99.90
11142;DHT22;5625;50.122;19.864;2022-10-16T03:12:55;13.70;99.90
11142;DHT22;5625;50.122;19.864;2022-10-16T03:15:24;13.70;99.90
11142;DHT22;5625;50.122;19.864;2022-10-16T03:17:54;13.70;99.90
11142;DHT22;5625;50.122;19.864;2022-10-16T03:20:22;13.70;99.90
11142;DHT22;5625;50.122;19.864;2022-10-16T03:22:50;13.70;99.90
11142;DHT22;5625;50.122;19.864;2022-10-16T03:25:18;13.60;99.90
11142;DHT22;5625;50.122;19.864;2022-10-16T03:27:46;13.60;99.90
11142;DHT22;5625;50.122;19.864;2022-10-16T03:30:14;13.60;99.90
11142;DHT22;5625;50.122;19.864;2022-10-16T03:32:44;13.50;99.90
11142;DHT22;5625;50.122;19.864;2022-10-16T03:35:13;13.50;99.90
11142;DHT22;5625;50.122;19.864;2022-10-16T03:37:41;13.50;99.90
11142;DHT22;5625;50.122;19.864;2022-10-16T03:40:10;13.50;99.90
11142;DHT22;5625;50.122;19.864;2022-10-16T03:42:38;13.40;99.90
11142;DHT22;5625;50.122;19.864;2022-10-16T03:45:07;13.40;99.90
11142;DHT22;5625;50.122;19.864;2022-10-16T03:47:35;13.40;99.90
11142;DHT22;5625;50.122;19.864;2022-10-16T03:50:04;13.40;99.90
11142;DHT22;5625;50.122;19.864;2022-10-16T03:52:33;13.40;99.90
11142;DHT22;5625;50.122;19.864;2022-10-16T03:55:01;13.40;99.90
11142;DHT22;5625;50.122;19.864;2022-10-16T03:57:29;13.40;99.90
11142;DHT22;5625;50.122;19.864;2022-10-16T03:59:57;13.40;99.90
11142;DHT22;5625;50.122;19.864;2022-10-16T04:02:25;13.40;99.90
11142;DHT22;5625;50.122;19.864;2022-10-16T04:04:53;13.40;99.90
11142;DHT22;5625;50.122;19.864;2022-10-16T04:07:21;13.40;99.90
11142;DHT22;5625;50.122;19.864;2022-10-16T04:09:51;13.40;99.90
11142;DHT22;5625;50.122;19.864;2022-10-16T04:12:20;13.40;99.90
11142;DHT22;5625;50.122;19.864;2022-10-16T04:14:48;13.40;99.90
11142;DHT22;5625;50.122;19.864;2022-10-16T04:17:16;13.40;99.90
11142;DHT22;5625;50.122;19.864;2022-10-16T04:19:44;13.40;99.90
11142;DHT22;5625;50.122;19.864;2022-10-16T04:22:12;13.30;99.90
11142;DHT22;5625;50.122;19.864;2022-10-16T04:24:40;13.30;99.90
11142;DHT22;5625;50.122;19.864;2022-10-16T04:27:10;13.30;99.90
11142;DHT22;5625;50.122;19.864;2022-10-16T04:29:38;13.30;99.90
11142;DHT22;5625;50.122;19.864;2022-10-16T04:32:08;13.20;99.90
11142;DHT22;5625;50.122;19.864;2022-10-16T04:34:38;13.20;99.90
11142;DHT22;5625;50.122;19.864;2022-10-16T04:37:06;13.20;99.90
11142;DHT22;5625;50.122;19.864;2022-10-16T04:39:34;13.10;99.90
11142;DHT22;5625;50.122;19.864;2022-10-16T04:42:02;13.10;99.90
11142;DHT22;5625;50.122;19.864;2022-10-16T04:44:32;13.00;99.90
11142;DHT22;5625;50.122;19.864;2022-10-16T04:47:00;13.00;99.90
11142;DHT22;5625;50.122;19.864;2022-10-16T04:49:28;13.00;99.90
11142;DHT22;5625;50.122;19.864;2022-10-16T04:51:56;13.00;99.90
11142;DHT22;5625;50.122;19.864;2022-10-16T04:54:24;12.90;99.90
11142;DHT22;5625;50.122;19.864;2022-10-16T04:56:52;12.90;99.90
11142;DHT22;5625;50.122;19.864;2022-10-16T04:59:22;12.90;99.90
11142;DHT22;5625;50.122;19.864;2022-10-16T05:01:54;12.80;99.90
11142;DHT22;5625;50.122;19.864;2022-10-16T05:04:22;12.80;99.90
11142;DHT22;5625;50.122;19.864;2022-10-16T05:06:50;12.80;99.90
11142;DHT22;5625;50.122;19.864;2022-10-16T05:09:18;12.80;99.90
11142;DHT22;5625;50.122;19.864;2022-10-16T05:11:47;12.80;99.90
11142;DHT22;5625;50.122;19.864;2022-10-16T05:14:15;12.70;99.90
11142;DHT22;5625;50.122;19.864;2022-10-16T05:16:43;12.70;99.90
11142;DHT22;5625;50.122;19.864;2022-10-16T05:19:14;12.70;99.90
11142;DHT22;5625;50.122;19.864;2022-10-16T05:21:58;12.70;99.90
11142;DHT22;5625;50.122;19.864;2022-10-16T05:24:26;12.70;99.90
11142;DHT22;5625;50.122;19.864;2022-10-16T05:26:54;12.70;99.90
11142;DHT22;5625;50.122;19.864;2022-10-16T05:29:22;12.70;99.90
11142;DHT22;5625;50.122;19.864;2022-10-16T05:31:51;12.70;99.90
11142;DHT22;5625;50.122;19.864;2022-10-16T05:34:21;12.70;99.90
11142;DHT22;5625;50.122;19.864;2022-10-16T05:36:49;12.70;99.90
11142;DHT22;5625;50.122;19.864;2022-10-16T05:39:17;12.70;99.90
11142;DHT22;5625;50.122;19.864;2022-10-16T05:41:45;12.70;99.90
11142;DHT22;5625;50.122;19.864;2022-10-16T05:44:13;12.80;99.90
11142;DHT22;5625;50.122;19.864;2022-10-16T05:46:41;12.80;99.90
11142;DHT22;5625;50.122;19.864;2022-10-16T05:49:09;12.80;99.90
11142;DHT22;5625;50.122;19.864;2022-10-16T05:51:38;12.90;99.90
11142;DHT22;5625;50.122;19.864;2022-10-16T05:54:08;12.90;99.90
11142;DHT22;5625;50.122;19.864;2022-10-16T05:56:36;12.90;99.90
11142;DHT22;5625;50.122;19.864;2022-10-16T05:59:04;13.00;99.90
11142;DHT22;5625;50.122;19.864;2022-10-16T06:01:32;13.00;99.90
11142;DHT22;5625;50.122;19.864;2022-10-16T06:04:02;13.10;99.90
11142;DHT22;5625;50.122;19.864;2022-10-16T06:06:30;13.10;99.90
11142;DHT22;5625;50.122;19.864;2022-10-16T06:09:00;13.10;99.90
11142;DHT22;5625;50.122;19.864;2022-10-16T06:11:30;13.20;99.90
11142;DHT22;5625;50.122;19.864;2022-10-16T06:13:59;13.20;99.90
11142;DHT22;5625;50.122;19.864;2022-10-16T06:16:29;13.20;99.90
11142;DHT22;5625;50.122;19.864;2022-10-16T06:18:57;13.30;99.90
11142;DHT22;5625;50.122;19.864;2022-10-16T06:21:27;13.30;99.90
11142;DHT22;5625;50.122;19.864;2022-10-16T06:23:56;13.40;99.90
11142;DHT22;5625;50.122;19.864;2022-10-16T06:26:27;13.40;99.90
11142;DHT22;5625;50.122;19.864;2022-10-16T06:28:57;13.50;99.90
11142;DHT22;5625;50.122;19.864;2022-10-16T06:31:27;13.60;99.90
11142;DHT22;5625;50.122;19.864;2022-10-16T06:33:58;13.60;99.90
11142;DHT22;5625;50.122;19.864;2022-10-16T06:36:26;13.80;99.90
11142;DHT22;5625;50.122;19.864;2022-10-16T06:38:55;13.90;99.90
11142;DHT22;5625;50.122;19.864;2022-10-16T06:41:25;14.10;99.90
11142;DHT22;5625;50.122;19.864;2022-10-16T06:43:53;14.40;99.90
11142;DHT22;5625;50.122;19.864;2022-10-16T06:46:22;14.80;99.90
11142;DHT22;5625;50.122;19.864;2022-10-16T06:48:51;15.10;99.90
11142;DHT22;5625;50.122;19.864;2022-10-16T06:51:20;15.20;99.90
11142;DHT22;5625;50.122;19.864;2022-10-16T06:53:50;15.30;99.90
11142;DHT22;5625;50.122;19.864;2022-10-16T06:56:35;15.30;99.90
11142;DHT22;5625;50.122;19.864;2022-10-16T06:59:03;15.20;99.90
11142;DHT22;5625;50.122;19.864;2022-10-16T07:01:37;15.20;99.90
11142;DHT22;5625;50.122;19.864;2022-10-16T07:04:05;15.20;99.90
11142;DHT22;5625;50.122;19.864;2022-10-16T07:06:34;15.30;99.90
11142;DHT22;5625;50.122;19.864;2022-10-16T07:09:05;15.40;99.90
11142;DHT22;5625;50.122;19.864;2022-10-16T07:11:36;15.60;99.90
11142;DHT22;5625;50.122;19.864;2022-10-16T07:14:05;16.00;99.90
11142;DHT22;5625;50.122;19.864;2022-10-16T07:16:33;16.40;99.90
11142;DHT22;5625;50.122;19.864;2022-10-16T07:19:02;16.80;99.90
11142;DHT22;5625;50.122;19.864;2022-10-16T07:21:31;17.10;99.90
11142;DHT22;5625;50.122;19.864;2022-10-16T07:24:04;17.40;99.90
11142;DHT22;5625;50.122;19.864;2022-10-16T07:26:35;17.70;99.90
11142;DHT22;5625;50.122;19.864;2022-10-16T07:29:06;17.90;99.90
11142;DHT22;5625;50.122;19.864;2022-10-16T07:31:37;18.30;99.90
11142;DHT22;5625;50.122;19.864;2022-10-16T07:34:05;18.60;99.90
11142;DHT22;5625;50.122;19.864;2022-10-16T07:36:37;18.90;99.90
11142;DHT22;5625;50.122;19.864;2022-10-16T07:39:05;18.90;99.90
11142;DHT22;5625;50.122;19.864;2022-10-16T07:41:34;18.80;99.90
11142;DHT22;5625;50.122;19.864;2022-10-16T07:44:04;18.70;99.90
11142;DHT22;5625;50.122;19.864;2022-10-16T07:46:32;18.60;99.90
11142;DHT22;5625;50.122;19.864;2022-10-16T07:49:02;18.60;99.90
11142;DHT22;5625;50.122;19.864;2022-10-16T07:51:31;18.80;99.90
11142;DHT22;5625;50.122;19.864;2022-10-16T07:53:59;19.00;99.90
11142;DHT22;5625;50.122;19.864;2022-10-16T07:56:27;19.30;99.90
11142;DHT22;5625;50.122;19.864;2022-10-16T07:58:56;19.80;99.90
11142;DHT22;5625;50.122;19.864;2022-10-16T08:01:24;20.20;99.90
11142;DHT22;5625;50.122;19.864;2022-10-16T08:03:52;20.50;99.90
11142;DHT22;5625;50.122;19.864;2022-10-16T08:06:22;21.10;99.90
11142;DHT22;5625;50.122;19.864;2022-10-16T08:08:54;21.80;99.90
11142;DHT22;5625;50.122;19.864;2022-10-16T08:11:22;21.80;99.90
11142;DHT22;5625;50.122;19.864;2022-10-16T08:13:50;21.60;99.90
11142;DHT22;5625;50.122;19.864;2022-10-16T08:16:20;21.50;99.90
11142;DHT22;5625;50.122;19.864;2022-10-16T08:18:48;21.50;99.90
11142;DHT22;5625;50.122;19.864;2022-10-16T08:21:19;21.60;99.90
11142;DHT22;5625;50.122;19.864;2022-10-16T08:23:48;21.70;99.90
11142;DHT22;5625;50.122;19.864;2022-10-16T08:26:22;22.10;99.90
11142;DHT22;5625;50.122;19.864;2022-10-16T08:28:51;22.40;99.90
11142;DHT22;5625;50.122;19.864;2022-10-16T08:31:20;22.80;99.90
11142;DHT22;5625;50.122;19.864;2022-10-16T08:33:49;23.30;99.90
11142;DHT22;5625;50.122;19.864;2022-10-16T08:36:17;24.10;99.90
11142;DHT22;5625;50.122;19.864;2022-10-16T08:38:48;25.10;99.10
11142;DHT22;5625;50.122;19.864;2022-10-16T08:41:53;25.70;98.30
11142;DHT22;5625;50.122;19.864;2022-10-16T08:44:35;26.30;97.50
11142;DHT22;5625;50.122;19.864;2022-10-16T08:47:13;26.00;97.10
11142;DHT22;5625;50.122;19.864;2022-10-16T08:49:56;25.60;97.30
11142;DHT22;5625;50.122;19.864;2022-10-16T08:52:29;25.50;97.00
11142;DHT22;5625;50.122;19.864;2022-10-16T08:54:57;25.40;97.30
11142;DHT22;5625;50.122;19.864;2022-10-16T08:57:26;24.90;97.70
11142;DHT22;5625;50.122;19.864;2022-10-16T08:59:55;24.30;98.30
11142;DHT22;5625;50.122;19.864;2022-10-16T09:02:32;24.00;99.00
11142;DHT22;5625;50.122;19.864;2022-10-16T09:05:18;23.80;99.20
11142;DHT22;5625;50.122;19.864;2022-10-16T09:07:55;23.60;99.60
11142;DHT22;5625;50.122;19.864;2022-10-16T09:10:38;23.40;99.30
11142;DHT22;5625;50.122;19.864;2022-10-16T09:13:20;23.10;99.40
11142;DHT22;5625;50.122;19.864;2022-10-16T09:15:56;22.90;99.70
11142;DHT22;5625;50.122;19.864;2022-10-16T09:18:33;22.70;99.90
11142;DHT22;5625;50.122;19.864;2022-10-16T09:21:09;22.50;99.90
11142;DHT22;5625;50.122;19.864;2022-10-16T09:23:41;22.30;99.90
11142;DHT22;5625;50.122;19.864;2022-10-16T09:26:12;22.30;99.90
11142;DHT22;5625;50.122;19.864;2022-10-16T09:28:41;22.20;99.90
11142;DHT22;5625;50.122;19.864;2022-10-16T09:31:15;22.10;99.90
11142;DHT22;5625;50.122;19.864;2022-10-16T09:33:48;22.00;99.90
11142;DHT22;5625;50.122;19.864;2022-10-16T09:36:19;21.80;99.90
11142;DHT22;5625;50.122;19.864;2022-10-16T09:38:48;21.70;99.90
11142;DHT22;5625;50.122;19.864;2022-10-16T09:41:18;21.70;99.90
11142;DHT22;5625;50.122;19.864;2022-10-16T09:43:49;21.70;99.90
11142;DHT22;5625;50.122;19.864;2022-10-16T09:46:26;21.70;99.90
11142;DHT22;5625;50.122;19.864;2022-10-16T09:48:58;21.70;99.90
11142;DHT22;5625;50.122;19.864;2022-10-16T09:51:28;21.60;99.90
11142;DHT22;5625;50.122;19.864;2022-10-16T09:54:00;21.70;99.90
11142;DHT22;5625;50.122;19.864;2022-10-16T09:56:31;21.70;99.90
11142;DHT22;5625;50.122;19.864;2022-10-16T09:59:01;21.80;99.90
11142;DHT22;5625;50.122;19.864;2022-10-16T10:01:39;22.00;99.90
11142;DHT22;5625;50.122;19.864;2022-10-16T10:04:10;22.20;99.90
11142;DHT22;5625;50.122;19.864;2022-10-16T10:06:43;22.40;99.90
11142;DHT22;5625;50.122;19.864;2022-10-16T10:09:19;22.40;99.90
11142;DHT22;5625;50.122;19.864;2022-10-16T10:11:53;22.20;99.90
11142;DHT22;5625;50.122;19.864;2022-10-16T10:14:24;22.10;99.90
11142;DHT22;5625;50.122;19.864;2022-10-16T10:17:13;22.10;99.90
11142;DHT22;5625;50.122;19.864;2022-10-16T10:19:58;22.10;99.90
11142;DHT22;5625;50.122;19.864;2022-10-16T10:22:30;22.10;99.90
11142;DHT22;5625;50.122;19.864;2022-10-16T10:25:15;22.00;99.90
11142;DHT22;5625;50.122;19.864;2022-10-16T10:30:40;21.90;99.90
11142;DHT22;5625;50.122;19.864;2022-10-16T10:33:19;21.90;99.90
11142;DHT22;5625;50.122;19.864;2022-10-16T10:35:56;21.90;99.90
11142;DHT22;5625;50.122;19.864;2022-10-16T10:38:33;21.90;99.90
11142;DHT22;5625;50.122;19.864;2022-10-16T10:41:25;22.00;99.90
11142;DHT22;5625;50.122;19.864;2022-10-16T10:44:06;22.10;99.90
11142;DHT22;5625;50.122;19.864;2022-10-16T10:46:39;22.20;99.90
11142;DHT22;5625;50.122;19.864;2022-10-16T10:49:24;22.20;99.90
11142;DHT22;5625;50.122;19.864;2022-10-16T10:52:02;22.30;99.90
11142;DHT22;5625;50.122;19.864;2022-10-16T10:54:39;22.30;99.90
11142;DHT22;5625;50.122;19.864;2022-10-16T10:57:14;22.40;99.90
11142;DHT22;5625;50.122;19.864;2022-10-16T11:00:14;22.30;99.90
11142;DHT22;5625;50.122;19.864;2022-10-16T11:02:50;22.10;99.90
11142;DHT22;5625;50.122;19.864;2022-10-16T11:05:31;22.00;99.90
11142;DHT22;5625;50.122;19.864;2022-10-16T11:08:10;22.00;99.90
11142;DHT22;5625;50.122;19.864;2022-10-16T11:10:47;21.90;99.90
11142;DHT22;5625;50.122;19.864;2022-10-16T11:13:28;21.90;99.90
11142;DHT22;5625;50.122;19.864;2022-10-16T11:16:01;21.90;99.90
11142;DHT22;5625;50.122;19.864;2022-10-16T11:18:44;21.90;99.90
11142;DHT22;5625;50.122;19.864;2022-10-16T11:21:15;21.90;99.90
11142;DHT22;5625;50.122;19.864;2022-10-16T11:23:51;21.80;99.90
11142;DHT22;5625;50.122;19.864;2022-10-16T11:26:25;21.80;99.90
11142;DHT22;5625;50.122;19.864;2022-10-16T11:28:55;21.80;99.90
11142;DHT22;5625;50.122;19.864;2022-10-16T11:31:32;21.70;99.90
11142;DHT22;5625;50.122;19.864;2022-10-16T11:34:06;21.70;99.90
11142;DHT22;5625;50.122;19.864;2022-10-16T11:36:45;21.70;99.90
11142;DHT22;5625;50.122;19.864;2022-10-16T11:39:20;21.60;99.90
11142;DHT22;5625;50.122;19.864;2022-10-16T11:41:50;21.60;99.90
11142;DHT22;5625;50.122;19.864;2022-10-16T11:44:41;21.60;99.90
11142;DHT22;5625;50.122;19.864;2022-10-16T11:47:31;21.60;99.90
11142;DHT22;5625;50.122;19.864;2022-10-16T11:50:24;21.60;99.90
11142;DHT22;5625;50.122;19.864;2022-10-16T11:52:58;21.60;99.90
11142;DHT22;5625;50.122;19.864;2022-10-16T11:55:33;21.60;99.90
11142;DHT22;5625;50.122;19.864;2022-10-16T11:58:15;21.70;99.90
11142;DHT22;5625;50.122;19.864;2022-10-16T12:00:53;21.70;99.90
11142;DHT22;5625;50.122;19.864;2022-10-16T12:03:28;21.70;99.90
11142;DHT22;5625;50.122;19.864;2022-10-16T12:06:19;21.80;99.90
11142;DHT22;5625;50.122;19.864;2022-10-16T12:08:50;21.70;99.90
11142;DHT22;5625;50.122;19.864;2022-10-16T12:11:36;21.80;99.90
11142;DHT22;5625;50.122;19.864;2022-10-16T12:14:07;21.90;99.90
11142;DHT22;5625;50.122;19.864;2022-10-16T12:16:52;21.90;99.90
11142;DHT22;5625;50.122;19.864;2022-10-16T12:19:22;21.80;99.90
11142;DHT22;5625;50.122;19.864;2022-10-16T12:21:51;21.90;99.90
11142;DHT22;5625;50.122;19.864;2022-10-16T12:24:32;21.80;99.90
11142;DHT22;5625;50.122;19.864;2022-10-16T12:27:03;21.80;99.90
11142;DHT22;5625;50.122;19.864;2022-10-16T12:29:35;21.70;99.90
11142;DHT22;5625;50.122;19.864;2022-10-16T12:32:05;21.80;99.90
11142;DHT22;5625;50.122;19.864;2022-10-16T12:35:16;21.70;99.90
11142;DHT22;5625;50.122;19.864;2022-10-16T12:37:45;21.70;99.90
11142;DHT22;5625;50.122;19.864;2022-10-16T12:40:15;21.80;99.90
11142;DHT22;5625;50.122;19.864;2022-10-16T12:42:45;21.80;99.90
11142;DHT22;5625;50.122;19.864;2022-10-16T12:45:25;21.90;99.90
11142;DHT22;5625;50.122;19.864;2022-10-16T12:47:54;22.00;99.90
11142;DHT22;5625;50.122;19.864;2022-10-16T12:50:32;21.90;99.90
11142;DHT22;5625;50.122;19.864;2022-10-16T12:53:01;21.90;99.90
11142;DHT22;5625;50.122;19.864;2022-10-16T12:55:35;21.90;99.90
11142;DHT22;5625;50.122;19.864;2022-10-16T12:58:21;21.90;99.90
11142;DHT22;5625;50.122;19.864;2022-10-16T13:00:56;21.80;99.90
11142;DHT22;5625;50.122;19.864;2022-10-16T13:03:42;21.90;99.90
11142;DHT22;5625;50.122;19.864;2022-10-16T13:06:22;21.90;99.90
11142;DHT22;5625;50.122;19.864;2022-10-16T13:09:07;21.80;99.90
11142;DHT22;5625;50.122;19.864;2022-10-16T13:11:48;21.90;99.90
11142;DHT22;5625;50.122;19.864;2022-10-16T13:17:30;21.80;99.90
11142;DHT22;5625;50.122;19.864;2022-10-16T13:20:03;21.70;99.90
11142;DHT22;5625;50.122;19.864;2022-10-16T13:22:40;21.70;99.90
11142;DHT22;5625;50.122;19.864;2022-10-16T13:25:21;21.70;99.90
11142;DHT22;5625;50.122;19.864;2022-10-16T13:27:55;21.70;99.90
11142;DHT22;5625;50.122;19.864;2022-10-16T13:30:36;21.70;99.90
11142;DHT22;5625;50.122;19.864;2022-10-16T13:33:11;21.60;99.90
11142;DHT22;5625;50.122;19.864;2022-10-16T13:35:48;21.60;99.90
11142;DHT22;5625;50.122;19.864;2022-10-16T13:38:19;21.60;99.90
11142;DHT22;5625;50.122;19.864;2022-10-16T13:40:49;21.60;99.90
11142;DHT22;5625;50.122;19.864;2022-10-16T13:43:18;21.50;99.90
11142;DHT22;5625;50.122;19.864;2022-10-16T13:45:57;21.50;99.90
11142;DHT22;5625;50.122;19.864;2022-10-16T13:48:25;21.50;99.90
11142;DHT22;5625;50.122;19.864;2022-10-16T13:51:01;21.40;99.90
11142;DHT22;5625;50.122;19.864;2022-10-16T13:53:31;21.40;99.90
11142;DHT22;5625;50.122;19.864;2022-10-16T13:56:00;21.40;99.90
11142;DHT22;5625;50.122;19.864;2022-10-16T13:58:29;21.30;99.90
11142;DHT22;5625;50.122;19.864;2022-10-16T14:00:59;21.30;99.90
11142;DHT22;5625;50.122;19.864;2022-10-16T14:03:30;21.20;99.90
11142;DHT22;5625;50.122;19.864;2022-10-16T14:06:00;21.20;99.90
11142;DHT22;5625;50.122;19.864;2022-10-16T14:08:29;21.20;99.90
11142;DHT22;5625;50.122;19.864;2022-10-16T14:10:59;21.20;99.90
11142;DHT22;5625;50.122;19.864;2022-10-16T14:13:34;21.10;99.90
11142;DHT22;5625;50.122;19.864;2022-10-16T14:16:09;21.10;99.90
11142;DHT22;5625;50.122;19.864;2022-10-16T14:18:39;21.00;99.90
11142;DHT22;5625;50.122;19.864;2022-10-16T14:21:12;21.00;99.90
11142;DHT22;5625;50.122;19.864;2022-10-16T14:23:42;21.00;99.90
11142;DHT22;5625;50.122;19.864;2022-10-16T14:26:19;21.00;99.90
11142;DHT22;5625;50.122;19.864;2022-10-16T14:28:48;21.00;99.90
11142;DHT22;5625;50.122;19.864;2022-10-16T14:31:30;21.00;99.90
11142;DHT22;5625;50.122;19.864;2022-10-16T14:33:59;21.00;99.90
11142;DHT22;5625;50.122;19.864;2022-10-16T14:36:28;21.00;99.90
11142;DHT22;5625;50.122;19.864;2022-10-16T14:39:02;21.00;99.90
11142;DHT22;5625;50.122;19.864;2022-10-16T14:41:32;21.00;99.90
11142;DHT22;5625;50.122;19.864;2022-10-16T14:44:03;20.90;99.90
11142;DHT22;5625;50.122;19.864;2022-10-16T14:46:35;20.80;99.90
11142;DHT22;5625;50.122;19.864;2022-10-16T14:49:15;20.80;99.90
11142;DHT22;5625;50.122;19.864;2022-10-16T14:51:43;20.80;99.90
11142;DHT22;5625;50.122;19.864;2022-10-16T14:54:13;20.70;99.90
11142;DHT22;5625;50.122;19.864;2022-10-16T14:56:46;20.60;99.90
11142;DHT22;5625;50.122;19.864;2022-10-16T14:59:19;20.60;99.90
11142;DHT22;5625;50.122;19.864;2022-10-16T15:01:49;20.50;99.90
11142;DHT22;5625;50.122;19.864;2022-10-16T15:04:18;20.50;99.90
11142;DHT22;5625;50.122;19.864;2022-10-16T15:06:46;20.50;99.90
11142;DHT22;5625;50.122;19.864;2022-10-16T15:09:17;20.40;99.90
11142;DHT22;5625;50.122;19.864;2022-10-16T15:11:45;20.30;99.90
11142;DHT22;5625;50.122;19.864;2022-10-16T15:14:14;20.30;99.90
11142;DHT22;5625;50.122;19.864;2022-10-16T15:16:44;20.20;99.90
11142;DHT22;5625;50.122;19.864;2022-10-16T15:19:14;20.10;99.90
11142;DHT22;5625;50.122;19.864;2022-10-16T15:21:43;20.10;99.90
11142;DHT22;5625;50.122;19.864;2022-10-16T15:24:13;20.00;99.90
11142;DHT22;5625;50.122;19.864;2022-10-16T15:26:47;19.90;99.90
11142;DHT22;5625;50.122;19.864;2022-10-16T15:29:15;19.90;99.90
11142;DHT22;5625;50.122;19.864;2022-10-16T15:31:43;19.80;99.90
11142;DHT22;5625;50.122;19.864;2022-10-16T15:34:15;19.70;99.90
11142;DHT22;5625;50.122;19.864;2022-10-16T15:36:45;19.70;99.90
11142;DHT22;5625;50.122;19.864;2022-10-16T15:39:15;19.60;99.90
11142;DHT22;5625;50.122;19.864;2022-10-16T15:41:45;19.50;99.90
11142;DHT22;5625;50.122;19.864;2022-10-16T15:44:17;19.50;99.90
11142;DHT22;5625;50.122;19.864;2022-10-16T15:46:45;19.40;99.90
11142;DHT22;5625;50.122;19.864;2022-10-16T15:49:18;19.40;99.90
11142;DHT22;5625;50.122;19.864;2022-10-16T15:51:46;19.30;99.90
11142;DHT22;5625;50.122;19.864;2022-10-16T15:54:16;19.20;99.90
11142;DHT22;5625;50.122;19.864;2022-10-16T15:56:48;19.20;99.90
11142;DHT22;5625;50.122;19.864;2022-10-16T15:59:16;19.10;99.90
11142;DHT22;5625;50.122;19.864;2022-10-16T16:01:44;19.00;99.90
11142;DHT22;5625;50.122;19.864;2022-10-16T16:04:12;19.00;99.90
11142;DHT22;5625;50.122;19.864;2022-10-16T16:07:02;18.90;99.90